sensor_id;sensor_type;location;lat;lon;timestamp;P1;durP1;ratioP1;P2;durP2;ratioP2
12480;SDS011;6305;48.398;11.762;2024-03-02T00:01:18;48.53;;;26.05;;
12480;SDS011;6305;48.398;11.762;2024-03-02T00:03:46;53.47;;;27.42;;
12480;SDS011;6305;48.398;11.762;2024-03-02T00:06:13;53.05;;;27.10;;
12480;SDS011;6305;48.398;11.762;2024-03-02T00:08:40;51.90;;;26.67;;
12480;SDS011;6305;48.398;11.762;2024-03-02T00:11:08;51.25;;;25.58;;
12480;SDS011;6305;48.398;11.762;2024-03-02T00:13:37;57.13;;;29.27;;
12480;SDS011;6305;48.398;11.762;2024-03-02T00:16:05;52.45;;;27.30;;
12480;SDS011;6305;48.398;11.762;2024-03-02T00:18:32;57.88;;;27.75;;
12480;SDS011;6305;48.398;11.762;2024-03-02T00:21:02;57.50;;;28.65;;
12480;SDS011;6305;48.398;11.762;2024-03-02T00:23:34;54.65;;;28.60;;
12480;SDS011;6305;48.398;11.762;2024-03-02T00:26:02;56.10;;;28.02;;
12480;SDS011;6305;48.398;11.762;2024-03-02T00:28:30;52.75;;;28.08;;
12480;SDS011;6305;48.398;11.762;2024-03-02T00:31:01;58.13;;;28.02;;
12480;SDS011;6305;48.398;11.762;2024-03-02T00:33:33;58.05;;;27.98;;
12480;SDS011;6305;48.398;11.762;2024-03-02T00:36:03;56.35;;;28.42;;
12480;SDS011;6305;48.398;11.762;2024-03-02T00:38:30;56.20;;;28.67;;
12480;SDS011;6305;48.398;11.762;2024-03-02T00:40:58;63.25;;;29.42;;
12480;SDS011;6305;48.398;11.762;2024-03-02T00:43:38;64.75;;;30.75;;
12480;SDS011;6305;48.398;11.762;2024-03-02T00:46:11;62.33;;;30.23;;
12480;SDS011;6305;48.398;11.762;2024-03-02T00:48:38;63.85;;;29.70;;
12480;SDS011;6305;48.398;11.762;2024-03-02T00:51:08;65.47;;;30.67;;
12480;SDS011;6305;48.398;11.762;2024-03-02T00:53:35;63.50;;;30.90;;
12480;SDS011;6305;48.398;11.762;2024-03-02T00:56:03;67.43;;;31.13;;
12480;SDS011;6305;48.398;11.762;2024-03-02T00:58:35;68.35;;;30.85;;
12480;SDS011;6305;48.398;11.762;2024-03-02T01:01:02;68.93;;;31.83;;
12480;SDS011;6305;48.398;11.762;2024-03-02T01:03:29;68.82;;;31.33;;
12480;SDS011;6305;48.398;11.762;2024-03-02T01:05:57;62.05;;;30.23;;
12480;SDS011;6305;48.398;11.762;2024-03-02T01:08:25;67.88;;;30.77;;
12480;SDS011;6305;48.398;11.762;2024-03-02T01:10:52;72.40;;;31.92;;
12480;SDS011;6305;48.398;11.762;2024-03-02T01:13:20;70.95;;;33.28;;
12480;SDS011;6305;48.398;11.762;2024-03-02T01:15:47;78.50;;;34.20;;
12480;SDS011;6305;48.398;11.762;2024-03-02T01:18:14;73.13;;;32.70;;
12480;SDS011;6305;48.398;11.762;2024-03-02T01:20:41;78.55;;;34.90;;
12480;SDS011;6305;48.398;11.762;2024-03-02T01:23:07;75.15;;;33.03;;
12480;SDS011;6305;48.398;11.762;2024-03-02T01:25:35;77.78;;;33.08;;
12480;SDS011;6305;48.398;11.762;2024-03-02T01:28:02;74.85;;;33.15;;
12480;SDS011;6305;48.398;11.762;2024-03-02T01:30:29;72.85;;;33.00;;
12480;SDS011;6305;48.398;11.762;2024-03-02T01:32:56;75.95;;;33.47;;
12480;SDS011;6305;48.398;11.762;2024-03-02T01:35:24;80.97;;;33.28;;
12480;SDS011;6305;48.398;11.762;2024-03-02T01:37:51;73.95;;;32.83;;
12480;SDS011;6305;48.398;11.762;2024-03-02T01:40:19;75.53;;;33.72;;
12480;SDS011;6305;48.398;11.762;2024-03-02T01:42:47;81.85;;;34.85;;
12480;SDS011;6305;48.398;11.762;2024-03-02T01:45:15;71.38;;;32.88;;
12480;SDS011;6305;48.398;11.762;2024-03-02T01:47:42;78.82;;;33.53;;
12480;SDS011;6305;48.398;11.762;2024-03-02T01:50:09;78.03;;;33.92;;
12480;SDS011;6305;48.398;11.762;2024-03-02T01:52:38;77.22;;;33.72;;
12480;SDS011;6305;48.398;11.762;2024-03-02T01:55:05;80.70;;;34.70;;
12480;SDS011;6305;48.398;11.762;2024-03-02T01:57:37;85.45;;;35.47;;
12480;SDS011;6305;48.398;11.762;2024-03-02T02:00:06;81.88;;;33.95;;
12480;SDS011;6305;48.398;11.762;2024-03-02T02:02:38;79.32;;;34.03;;
12480;SDS011;6305;48.398;11.762;2024-03-02T02:05:05;84.95;;;35.78;;
12480;SDS011;6305;48.398;11.762;2024-03-02T02:07:32;78.07;;;36.25;;
12480;SDS011;6305;48.398;11.762;2024-03-02T02:10:00;85.22;;;34.90;;
12480;SDS011;6305;48.398;11.762;2024-03-02T02:12:27;85.07;;;35.22;;
12480;SDS011;6305;48.398;11.762;2024-03-02T02:14:55;79.43;;;35.70;;
12480;SDS011;6305;48.398;11.762;2024-03-02T02:17:23;80.35;;;34.38;;
12480;SDS011;6305;48.398;11.762;2024-03-02T02:19:50;86.95;;;35.95;;
12480;SDS011;6305;48.398;11.762;2024-03-02T02:22:18;93.40;;;36.80;;
12480;SDS011;6305;48.398;11.762;2024-03-02T02:24:45;88.28;;;36.75;;
12480;SDS011;6305;48.398;11.762;2024-03-02T02:27:12;97.47;;;38.15;;
12480;SDS011;6305;48.398;11.762;2024-03-02T02:29:40;94.57;;;38.38;;
12480;SDS011;6305;48.398;11.762;2024-03-02T02:32:07;102.65;;;38.75;;
12480;SDS011;6305;48.398;11.762;2024-03-02T02:34:34;92.28;;;36.70;;
12480;SDS011;6305;48.398;11.762;2024-03-02T02:37:01;95.93;;;38.15;;
12480;SDS011;6305;48.398;11.762;2024-03-02T02:39:29;95.18;;;37.25;;
12480;SDS011;6305;48.398;11.762;2024-03-02T02:41:56;96.00;;;37.17;;
12480;SDS011;6305;48.398;11.762;2024-03-02T02:44:25;80.88;;;34.47;;
12480;SDS011;6305;48.398;11.762;2024-03-02T02:46:51;92.93;;;35.38;;
12480;SDS011;6305;48.398;11.762;2024-03-02T02:49:18;83.35;;;33.42;;
12480;SDS011;6305;48.398;11.762;2024-03-02T02:51:45;89.88;;;35.45;;
12480;SDS011;6305;48.398;11.762;2024-03-02T02:54:12;86.15;;;34.60;;
12480;SDS011;6305;48.398;11.762;2024-03-02T02:56:40;91.22;;;34.95;;
12480;SDS011;6305;48.398;11.762;2024-03-02T02:59:07;83.88;;;33.33;;
12480;SDS011;6305;48.398;11.762;2024-03-02T03:01:34;83.50;;;33.92;;
12480;SDS011;6305;48.398;11.762;2024-03-02T03:04:01;89.00;;;33.90;;
12480;SDS011;6305;48.398;11.762;2024-03-02T03:06:28;89.80;;;35.33;;
12480;SDS011;6305;48.398;11.762;2024-03-02T03:08:55;78.60;;;33.00;;
12480;SDS011;6305;48.398;11.762;2024-03-02T03:11:22;83.13;;;33.55;;
12480;SDS011;6305;48.398;11.762;2024-03-02T03:13:53;90.28;;;34.50;;
12480;SDS011;6305;48.398;11.762;2024-03-02T03:16:20;87.30;;;33.67;;
12480;SDS011;6305;48.398;11.762;2024-03-02T03:18:47;89.43;;;35.10;;
12480;SDS011;6305;48.398;11.762;2024-03-02T03:21:16;83.78;;;34.88;;
12480;SDS011;6305;48.398;11.762;2024-03-02T03:23:43;87.18;;;33.90;;
12480;SDS011;6305;48.398;11.762;2024-03-02T03:26:10;94.32;;;36.50;;
12480;SDS011;6305;48.398;11.762;2024-03-02T03:28:37;84.25;;;35.13;;
12480;SDS011;6305;48.398;11.762;2024-03-02T03:31:05;89.07;;;33.65;;
12480;SDS011;6305;48.398;11.762;2024-03-02T03:33:32;89.57;;;34.08;;
12480;SDS011;6305;48.398;11.762;2024-03-02T03:36:00;90.45;;;34.80;;
12480;SDS011;6305;48.398;11.762;2024-03-02T03:38:28;93.93;;;35.60;;
12480;SDS011;6305;48.398;11.762;2024-03-02T03:40:55;95.07;;;36.40;;
12480;SDS011;6305;48.398;11.762;2024-03-02T03:43:22;95.93;;;34.50;;
12480;SDS011;6305;48.398;11.762;2024-03-02T03:45:49;93.78;;;34.63;;
12480;SDS011;6305;48.398;11.762;2024-03-02T03:48:17;93.80;;;35.60;;
12480;SDS011;6305;48.398;11.762;2024-03-02T03:50:45;91.35;;;35.67;;
12480;SDS011;6305;48.398;11.762;2024-03-02T03:53:11;90.20;;;34.03;;
12480;SDS011;6305;48.398;11.762;2024-03-02T03:55:40;90.72;;;34.55;;
12480;SDS011;6305;48.398;11.762;2024-03-02T03:58:07;100.55;;;36.63;;
12480;SDS011;6305;48.398;11.762;2024-03-02T04:00:34;107.82;;;37.03;;
12480;SDS011;6305;48.398;11.762;2024-03-02T04:03:01;99.50;;;36.08;;
12480;SDS011;6305;48.398;11.762;2024-03-02T04:05:29;104.22;;;37.80;;
12480;SDS011;6305;48.398;11.762;2024-03-02T04:07:56;101.25;;;38.13;;
12480;SDS011;6305;48.398;11.762;2024-03-02T04:10:22;102.13;;;38.28;;
12480;SDS011;6305;48.398;11.762;2024-03-02T04:12:49;95.70;;;35.58;;
12480;SDS011;6305;48.398;11.762;2024-03-02T04:15:16;100.80;;;34.95;;
12480;SDS011;6305;48.398;11.762;2024-03-02T04:17:44;101.25;;;35.08;;
12480;SDS011;6305;48.398;11.762;2024-03-02T04:20:11;97.15;;;34.67;;
12480;SDS011;6305;48.398;11.762;2024-03-02T04:22:40;97.18;;;35.75;;
12480;SDS011;6305;48.398;11.762;2024-03-02T04:25:07;98.50;;;34.85;;
12480;SDS011;6305;48.398;11.762;2024-03-02T04:27:34;103.43;;;36.05;;
12480;SDS011;6305;48.398;11.762;2024-03-02T04:30:02;105.03;;;36.30;;
12480;SDS011;6305;48.398;11.762;2024-03-02T04:32:30;111.30;;;38.10;;
12480;SDS011;6305;48.398;11.762;2024-03-02T04:34:57;100.13;;;37.63;;
12480;SDS011;6305;48.398;11.762;2024-03-02T04:37:24;110.30;;;38.20;;
12480;SDS011;6305;48.398;11.762;2024-03-02T04:39:53;105.95;;;37.38;;
12480;SDS011;6305;48.398;11.762;2024-03-02T04:42:20;114.47;;;37.88;;
12480;SDS011;6305;48.398;11.762;2024-03-02T04:44:47;101.00;;;36.25;;
12480;SDS011;6305;48.398;11.762;2024-03-02T04:47:14;104.30;;;38.15;;
12480;SDS011;6305;48.398;11.762;2024-03-02T04:49:41;109.78;;;36.05;;
12480;SDS011;6305;48.398;11.762;2024-03-02T04:52:08;106.00;;;36.05;;
12480;SDS011;6305;48.398;11.762;2024-03-02T04:54:35;102.20;;;36.50;;
12480;SDS011;6305;48.398;11.762;2024-03-02T04:57:24;107.93;;;36.88;;
12480;SDS011;6305;48.398;11.762;2024-03-02T04:59:51;92.65;;;34.35;;
12480;SDS011;6305;48.398;11.762;2024-03-02T05:02:17;105.43;;;37.30;;
12480;SDS011;6305;48.398;11.762;2024-03-02T05:04:44;106.50;;;36.58;;
12480;SDS011;6305;48.398;11.762;2024-03-02T05:07:13;103.47;;;36.03;;
12480;SDS011;6305;48.398;11.762;2024-03-02T05:09:40;109.25;;;37.20;;
12480;SDS011;6305;48.398;11.762;2024-03-02T05:12:07;104.38;;;37.03;;
12480;SDS011;6305;48.398;11.762;2024-03-02T05:14:52;108.30;;;36.78;;
12480;SDS011;6305;48.398;11.762;2024-03-02T05:17:19;103.28;;;37.20;;
12480;SDS011;6305;48.398;11.762;2024-03-02T05:19:46;105.72;;;37.53;;
12480;SDS011;6305;48.398;11.762;2024-03-02T05:22:13;117.68;;;38.38;;
12480;SDS011;6305;48.398;11.762;2024-03-02T05:24:40;110.68;;;39.17;;
12480;SDS011;6305;48.398;11.762;2024-03-02T05:27:07;121.95;;;38.97;;
12480;SDS011;6305;48.398;11.762;2024-03-02T05:29:34;120.78;;;39.28;;
12480;SDS011;6305;48.398;11.762;2024-03-02T05:32:02;122.03;;;39.72;;
12480;SDS011;6305;48.398;11.762;2024-03-02T05:34:29;126.57;;;40.53;;
12480;SDS011;6305;48.398;11.762;2024-03-02T05:36:58;108.57;;;39.45;;
12480;SDS011;6305;48.398;11.762;2024-03-02T05:39:25;126.25;;;39.35;;
12480;SDS011;6305;48.398;11.762;2024-03-02T05:41:51;119.20;;;38.70;;
12480;SDS011;6305;48.398;11.762;2024-03-02T05:44:18;125.43;;;40.15;;
12480;SDS011;6305;48.398;11.762;2024-03-02T05:46:45;123.28;;;40.58;;
12480;SDS011;6305;48.398;11.762;2024-03-02T05:49:14;116.25;;;40.50;;
12480;SDS011;6305;48.398;11.762;2024-03-02T05:51:41;123.25;;;40.95;;
12480;SDS011;6305;48.398;11.762;2024-03-02T05:54:08;112.88;;;38.65;;
12480;SDS011;6305;48.398;11.762;2024-03-02T05:56:35;112.90;;;37.42;;
12480;SDS011;6305;48.398;11.762;2024-03-02T05:59:02;110.85;;;39.10;;
12480;SDS011;6305;48.398;11.762;2024-03-02T06:01:38;106.80;;;36.95;;
12480;SDS011;6305;48.398;11.762;2024-03-02T06:04:05;117.72;;;39.58;;
12480;SDS011;6305;48.398;11.762;2024-03-02T06:06:33;115.68;;;39.85;;
12480;SDS011;6305;48.398;11.762;2024-03-02T06:09:00;118.43;;;40.28;;
12480;SDS011;6305;48.398;11.762;2024-03-02T06:11:30;121.35;;;40.08;;
12480;SDS011;6305;48.398;11.762;2024-03-02T06:13:57;128.88;;;40.92;;
12480;SDS011;6305;48.398;11.762;2024-03-02T06:16:24;112.63;;;40.15;;
12480;SDS011;6305;48.398;11.762;2024-03-02T06:18:51;115.40;;;39.97;;
12480;SDS011;6305;48.398;11.762;2024-03-02T06:21:19;119.90;;;40.17;;
12480;SDS011;6305;48.398;11.762;2024-03-02T06:23:47;120.90;;;40.67;;
12480;SDS011;6305;48.398;11.762;2024-03-02T06:26:14;122.70;;;40.83;;
12480;SDS011;6305;48.398;11.762;2024-03-02T06:28:41;126.47;;;42.33;;
12480;SDS011;6305;48.398;11.762;2024-03-02T06:31:08;117.68;;;41.20;;
12480;SDS011;6305;48.398;11.762;2024-03-02T06:33:35;125.55;;;42.10;;
12480;SDS011;6305;48.398;11.762;2024-03-02T06:36:03;115.80;;;41.15;;
12480;SDS011;6305;48.398;11.762;2024-03-02T06:38:33;122.68;;;40.85;;
12480;SDS011;6305;48.398;11.762;2024-03-02T06:41:01;131.23;;;41.47;;
12480;SDS011;6305;48.398;11.762;2024-03-02T06:43:28;129.98;;;43.20;;
12480;SDS011;6305;48.398;11.762;2024-03-02T06:45:55;130.18;;;42.40;;
12480;SDS011;6305;48.398;11.762;2024-03-02T06:48:22;131.95;;;43.53;;
12480;SDS011;6305;48.398;11.762;2024-03-02T06:50:49;123.97;;;43.95;;
12480;SDS011;6305;48.398;11.762;2024-03-02T06:53:17;133.93;;;45.17;;
12480;SDS011;6305;48.398;11.762;2024-03-02T06:55:45;126.88;;;44.65;;
12480;SDS011;6305;48.398;11.762;2024-03-02T06:58:13;139.18;;;47.20;;
12480;SDS011;6305;48.398;11.762;2024-03-02T07:00:41;129.07;;;44.45;;
12480;SDS011;6305;48.398;11.762;2024-03-02T07:03:09;131.75;;;44.92;;
12480;SDS011;6305;48.398;11.762;2024-03-02T07:05:36;127.28;;;45.88;;
12480;SDS011;6305;48.398;11.762;2024-03-02T07:08:03;126.88;;;45.78;;
12480;SDS011;6305;48.398;11.762;2024-03-02T07:10:31;116.68;;;44.72;;
12480;SDS011;6305;48.398;11.762;2024-03-02T07:12:58;125.15;;;45.47;;
12480;SDS011;6305;48.398;11.762;2024-03-02T07:15:26;116.97;;;43.33;;
12480;SDS011;6305;48.398;11.762;2024-03-02T07:18:10;118.38;;;43.58;;
12480;SDS011;6305;48.398;11.762;2024-03-02T07:20:37;115.38;;;42.33;;
12480;SDS011;6305;48.398;11.762;2024-03-02T07:23:04;114.05;;;44.38;;
12480;SDS011;6305;48.398;11.762;2024-03-02T07:25:32;117.75;;;44.05;;
12480;SDS011;6305;48.398;11.762;2024-03-02T07:27:58;110.35;;;43.03;;
12480;SDS011;6305;48.398;11.762;2024-03-02T07:30:27;102.78;;;42.05;;
12480;SDS011;6305;48.398;11.762;2024-03-02T07:32:54;102.22;;;42.13;;
12480;SDS011;6305;48.398;11.762;2024-03-02T07:35:20;104.40;;;43.10;;
12480;SDS011;6305;48.398;11.762;2024-03-02T07:37:51;99.90;;;44.00;;
12480;SDS011;6305;48.398;11.762;2024-03-02T07:40:18;92.93;;;43.65;;
12480;SDS011;6305;48.398;11.762;2024-03-02T07:42:45;90.22;;;40.88;;
12480;SDS011;6305;48.398;11.762;2024-03-02T07:45:13;82.55;;;40.85;;
12480;SDS011;6305;48.398;11.762;2024-03-02T07:47:41;86.80;;;41.85;;
12480;SDS011;6305;48.398;11.762;2024-03-02T07:50:08;68.45;;;37.00;;
12480;SDS011;6305;48.398;11.762;2024-03-02T07:52:35;70.53;;;36.67;;
12480;SDS011;6305;48.398;11.762;2024-03-02T07:55:02;62.38;;;34.25;;
12480;SDS011;6305;48.398;11.762;2024-03-02T07:57:30;61.45;;;34.25;;
12480;SDS011;6305;48.398;11.762;2024-03-02T07:59:58;57.35;;;32.08;;
12480;SDS011;6305;48.398;11.762;2024-03-02T08:02:25;52.65;;;29.15;;
12480;SDS011;6305;48.398;11.762;2024-03-02T08:04:53;49.78;;;27.52;;
12480;SDS011;6305;48.398;11.762;2024-03-02T08:07:20;46.97;;;26.40;;
12480;SDS011;6305;48.398;11.762;2024-03-02T08:09:47;41.05;;;23.50;;
12480;SDS011;6305;48.398;11.762;2024-03-02T08:12:14;38.92;;;24.48;;
12480;SDS011;6305;48.398;11.762;2024-03-02T08:14:41;39.83;;;22.77;;
12480;SDS011;6305;48.398;11.762;2024-03-02T08:17:08;38.42;;;22.30;;
12480;SDS011;6305;48.398;11.762;2024-03-02T08:19:36;33.60;;;22.20;;
12480;SDS011;6305;48.398;11.762;2024-03-02T08:22:05;33.60;;;21.77;;
12480;SDS011;6305;48.398;11.762;2024-03-02T08:24:32;35.35;;;22.52;;
12480;SDS011;6305;48.398;11.762;2024-03-02T08:26:59;31.63;;;21.42;;
12480;SDS011;6305;48.398;11.762;2024-03-02T08:29:27;36.55;;;22.63;;
12480;SDS011;6305;48.398;11.762;2024-03-02T08:31:54;32.03;;;22.00;;
12480;SDS011;6305;48.398;11.762;2024-03-02T08:34:20;33.92;;;21.67;;
12480;SDS011;6305;48.398;11.762;2024-03-02T08:36:47;33.67;;;21.67;;
12480;SDS011;6305;48.398;11.762;2024-03-02T08:39:16;28.73;;;20.58;;
12480;SDS011;6305;48.398;11.762;2024-03-02T08:41:45;29.30;;;19.65;;
12480;SDS011;6305;48.398;11.762;2024-03-02T08:44:12;29.80;;;18.83;;
12480;SDS011;6305;48.398;11.762;2024-03-02T08:46:39;28.58;;;19.25;;
12480;SDS011;6305;48.398;11.762;2024-03-02T08:49:06;26.40;;;18.25;;
12480;SDS011;6305;48.398;11.762;2024-03-02T08:51:33;26.70;;;18.50;;
12480;SDS011;6305;48.398;11.762;2024-03-02T08:54:00;23.33;;;16.85;;
12480;SDS011;6305;48.398;11.762;2024-03-02T08:56:30;24.13;;;17.15;;
12480;SDS011;6305;48.398;11.762;2024-03-02T08:58:57;25.23;;;18.30;;
12480;SDS011;6305;48.398;11.762;2024-03-02T09:01:24;27.35;;;18.92;;
12480;SDS011;6305;48.398;11.762;2024-03-02T09:03:51;26.92;;;19.20;;
12480;SDS011;6305;48.398;11.762;2024-03-02T09:06:18;29.58;;;18.98;;
12480;SDS011;6305;48.398;11.762;2024-03-02T09:08:46;25.05;;;18.65;;
12480;SDS011;6305;48.398;11.762;2024-03-02T09:11:15;25.48;;;17.77;;
12480;SDS011;6305;48.398;11.762;2024-03-02T09:13:43;26.02;;;18.45;;
12480;SDS011;6305;48.398;11.762;2024-03-02T09:16:10;23.55;;;17.70;;
12480;SDS011;6305;48.398;11.762;2024-03-02T09:18:37;24.65;;;17.63;;
12480;SDS011;6305;48.398;11.762;2024-03-02T09:21:04;24.42;;;17.17;;
12480;SDS011;6305;48.398;11.762;2024-03-02T09:23:32;25.23;;;18.73;;
12480;SDS011;6305;48.398;11.762;2024-03-02T09:25:59;24.92;;;18.65;;
12480;SDS011;6305;48.398;11.762;2024-03-02T09:28:26;23.35;;;17.63;;
12480;SDS011;6305;48.398;11.762;2024-03-02T09:30:55;24.75;;;19.15;;
12480;SDS011;6305;48.398;11.762;2024-03-02T09:33:21;25.48;;;19.77;;
12480;SDS011;6305;48.398;11.762;2024-03-02T09:35:48;23.17;;;17.98;;
12480;SDS011;6305;48.398;11.762;2024-03-02T09:38:15;31.05;;;18.90;;
12480;SDS011;6305;48.398;11.762;2024-03-02T09:40:42;29.15;;;20.27;;
12480;SDS011;6305;48.398;11.762;2024-03-02T09:43:09;27.95;;;20.60;;
12480;SDS011;6305;48.398;11.762;2024-03-02T09:45:36;27.17;;;20.20;;
12480;SDS011;6305;48.398;11.762;2024-03-02T09:48:05;30.00;;;21.70;;
12480;SDS011;6305;48.398;11.762;2024-03-02T09:50:33;28.52;;;20.30;;
12480;SDS011;6305;48.398;11.762;2024-03-02T09:53:00;33.95;;;22.23;;
12480;SDS011;6305;48.398;11.762;2024-03-02T09:55:27;31.95;;;22.50;;
12480;SDS011;6305;48.398;11.762;2024-03-02T09:57:54;33.08;;;22.48;;
12480;SDS011;6305;48.398;11.762;2024-03-02T10:00:22;33.70;;;23.92;;
12480;SDS011;6305;48.398;11.762;2024-03-02T10:02:50;35.10;;;23.05;;
12480;SDS011;6305;48.398;11.762;2024-03-02T10:05:24;32.92;;;22.48;;
12480;SDS011;6305;48.398;11.762;2024-03-02T10:07:59;32.42;;;21.70;;
12480;SDS011;6305;48.398;11.762;2024-03-02T10:10:34;33.53;;;23.50;;
12480;SDS011;6305;48.398;11.762;2024-03-02T10:13:05;31.83;;;22.58;;
12480;SDS011;6305;48.398;11.762;2024-03-02T10:15:34;31.95;;;21.75;;
12480;SDS011;6305;48.398;11.762;2024-03-02T10:18:02;32.03;;;23.10;;
12480;SDS011;6305;48.398;11.762;2024-03-02T10:20:31;32.00;;;22.00;;
12480;SDS011;6305;48.398;11.762;2024-03-02T10:23:09;34.75;;;23.02;;
12480;SDS011;6305;48.398;11.762;2024-03-02T10:25:37;32.25;;;22.77;;
12480;SDS011;6305;48.398;11.762;2024-03-02T10:28:04;32.67;;;22.52;;
12480;SDS011;6305;48.398;11.762;2024-03-02T10:30:32;29.15;;;20.38;;
12480;SDS011;6305;48.398;11.762;2024-03-02T10:32:59;34.85;;;23.20;;
12480;SDS011;6305;48.398;11.762;2024-03-02T10:35:26;31.38;;;20.63;;
12480;SDS011;6305;48.398;11.762;2024-03-02T10:37:55;32.28;;;21.63;;
12480;SDS011;6305;48.398;11.762;2024-03-02T10:40:22;29.27;;;21.30;;
12480;SDS011;6305;48.398;11.762;2024-03-02T10:42:49;27.73;;;20.73;;
12480;SDS011;6305;48.398;11.762;2024-03-02T10:45:17;26.95;;;21.17;;
12480;SDS011;6305;48.398;11.762;2024-03-02T10:47:47;28.30;;;21.98;;
12480;SDS011;6305;48.398;11.762;2024-03-02T10:50:15;25.65;;;19.95;;
12480;SDS011;6305;48.398;11.762;2024-03-02T10:52:42;26.25;;;20.55;;
12480;SDS011;6305;48.398;11.762;2024-03-02T10:55:11;26.30;;;20.02;;
12480;SDS011;6305;48.398;11.762;2024-03-02T10:57:41;27.80;;;20.95;;
12480;SDS011;6305;48.398;11.762;2024-03-02T11:00:13;26.30;;;20.15;;
12480;SDS011;6305;48.398;11.762;2024-03-02T11:02:46;29.08;;;20.35;;
12480;SDS011;6305;48.398;11.762;2024-03-02T11:05:18;25.38;;;19.35;;
12480;SDS011;6305;48.398;11.762;2024-03-02T11:07:52;23.45;;;18.30;;
12480;SDS011;6305;48.398;11.762;2024-03-02T11:10:24;25.75;;;18.52;;
12480;SDS011;6305;48.398;11.762;2024-03-02T11:12:53;22.95;;;17.65;;
12480;SDS011;6305;48.398;11.762;2024-03-02T11:15:25;21.52;;;17.33;;
12480;SDS011;6305;48.398;11.762;2024-03-02T11:17:53;23.65;;;17.55;;
12480;SDS011;6305;48.398;11.762;2024-03-02T11:20:22;21.92;;;17.58;;
12480;SDS011;6305;48.398;11.762;2024-03-02T11:22:50;22.42;;;17.75;;
12480;SDS011;6305;48.398;11.762;2024-03-02T11:25:24;19.27;;;16.10;;
12480;SDS011;6305;48.398;11.762;2024-03-02T11:28:01;19.23;;;16.83;;
12480;SDS011;6305;48.398;11.762;2024-03-02T11:30:48;19.27;;;16.90;;
12480;SDS011;6305;48.398;11.762;2024-03-02T11:33:15;21.52;;;16.52;;
12480;SDS011;6305;48.398;11.762;2024-03-02T11:35:54;21.83;;;16.80;;
12480;SDS011;6305;48.398;11.762;2024-03-02T11:38:22;21.27;;;16.45;;
12480;SDS011;6305;48.398;11.762;2024-03-02T11:40:51;19.70;;;15.68;;
12480;SDS011;6305;48.398;11.762;2024-03-02T11:43:19;18.42;;;15.70;;
12480;SDS011;6305;48.398;11.762;2024-03-02T11:45:46;19.60;;;15.18;;
12480;SDS011;6305;48.398;11.762;2024-03-02T11:48:15;18.58;;;15.10;;
12480;SDS011;6305;48.398;11.762;2024-03-02T11:50:42;14.65;;;12.95;;
12480;SDS011;6305;48.398;11.762;2024-03-02T11:53:14;18.27;;;14.63;;
12480;SDS011;6305;48.398;11.762;2024-03-02T11:55:42;15.45;;;13.05;;
12480;SDS011;6305;48.398;11.762;2024-03-02T11:58:13;16.10;;;12.77;;
12480;SDS011;6305;48.398;11.762;2024-03-02T12:00:43;16.45;;;12.02;;
12480;SDS011;6305;48.398;11.762;2024-03-02T12:03:12;16.15;;;12.48;;
12480;SDS011;6305;48.398;11.762;2024-03-02T12:05:40;15.82;;;13.32;;
12480;SDS011;6305;48.398;11.762;2024-03-02T12:08:08;18.10;;;14.93;;
12480;SDS011;6305;48.398;11.762;2024-03-02T12:10:35;16.13;;;13.93;;
12480;SDS011;6305;48.398;11.762;2024-03-02T12:13:03;15.98;;;13.00;;
12480;SDS011;6305;48.398;11.762;2024-03-02T12:15:35;15.48;;;11.98;;
12480;SDS011;6305;48.398;11.762;2024-03-02T12:18:03;16.98;;;14.38;;
12480;SDS011;6305;48.398;11.762;2024-03-02T12:20:32;15.93;;;13.68;;
12480;SDS011;6305;48.398;11.762;2024-03-02T12:23:00;18.77;;;14.65;;
12480;SDS011;6305;48.398;11.762;2024-03-02T12:25:27;17.13;;;14.30;;
12480;SDS011;6305;48.398;11.762;2024-03-02T12:27:56;16.70;;;13.93;;
12480;SDS011;6305;48.398;11.762;2024-03-02T12:30:26;18.60;;;14.90;;
12480;SDS011;6305;48.398;11.762;2024-03-02T12:32:59;17.15;;;12.60;;
12480;SDS011;6305;48.398;11.762;2024-03-02T12:35:26;16.40;;;13.50;;
12480;SDS011;6305;48.398;11.762;2024-03-02T12:37:53;14.77;;;12.80;;
12480;SDS011;6305;48.398;11.762;2024-03-02T12:40:21;18.83;;;15.18;;
12480;SDS011;6305;48.398;11.762;2024-03-02T12:42:49;16.50;;;13.43;;
12480;SDS011;6305;48.398;11.762;2024-03-02T12:45:16;16.70;;;13.55;;
12480;SDS011;6305;48.398;11.762;2024-03-02T12:47:49;18.02;;;14.65;;
12480;SDS011;6305;48.398;11.762;2024-03-02T12:50:18;17.20;;;13.68;;
12480;SDS011;6305;48.398;11.762;2024-03-02T12:52:50;16.30;;;13.30;;
12480;SDS011;6305;48.398;11.762;2024-03-02T12:55:19;17.52;;;13.98;;
12480;SDS011;6305;48.398;11.762;2024-03-02T12:57:47;17.90;;;14.65;;
12480;SDS011;6305;48.398;11.762;2024-03-02T13:00:17;18.98;;;15.13;;
12480;SDS011;6305;48.398;11.762;2024-03-02T13:02:45;17.70;;;13.75;;
12480;SDS011;6305;48.398;11.762;2024-03-02T13:05:13;18.52;;;13.80;;
12480;SDS011;6305;48.398;11.762;2024-03-02T13:07:41;19.70;;;14.93;;
12480;SDS011;6305;48.398;11.762;2024-03-02T13:10:08;19.63;;;15.13;;
12480;SDS011;6305;48.398;11.762;2024-03-02T13:12:35;18.20;;;15.10;;
12480;SDS011;6305;48.398;11.762;2024-03-02T13:15:02;18.90;;;14.13;;
12480;SDS011;6305;48.398;11.762;2024-03-02T13:17:30;20.55;;;15.25;;
12480;SDS011;6305;48.398;11.762;2024-03-02T13:19:59;20.08;;;15.48;;
12480;SDS011;6305;48.398;11.762;2024-03-02T13:22:26;18.88;;;15.23;;
12480;SDS011;6305;48.398;11.762;2024-03-02T13:24:54;19.58;;;15.90;;
12480;SDS011;6305;48.398;11.762;2024-03-02T13:27:22;20.40;;;16.20;;
12480;SDS011;6305;48.398;11.762;2024-03-02T13:29:49;18.42;;;14.93;;
12480;SDS011;6305;48.398;11.762;2024-03-02T13:32:16;19.83;;;15.68;;
12480;SDS011;6305;48.398;11.762;2024-03-02T13:34:45;20.48;;;16.00;;
12480;SDS011;6305;48.398;11.762;2024-03-02T13:37:12;20.33;;;15.90;;
12480;SDS011;6305;48.398;11.762;2024-03-02T13:39:39;20.50;;;15.98;;
12480;SDS011;6305;48.398;11.762;2024-03-02T13:42:08;18.27;;;14.40;;
12480;SDS011;6305;48.398;11.762;2024-03-02T13:44:37;16.33;;;13.52;;
12480;SDS011;6305;48.398;11.762;2024-03-02T13:47:04;20.35;;;14.93;;
12480;SDS011;6305;48.398;11.762;2024-03-02T13:49:31;19.08;;;15.57;;
12480;SDS011;6305;48.398;11.762;2024-03-02T13:52:02;18.98;;;15.90;;
12480;SDS011;6305;48.398;11.762;2024-03-02T13:54:38;18.48;;;14.35;;
12480;SDS011;6305;48.398;11.762;2024-03-02T13:57:07;17.98;;;14.52;;
12480;SDS011;6305;48.398;11.762;2024-03-02T13:59:36;19.40;;;15.02;;
12480;SDS011;6305;48.398;11.762;2024-03-02T14:02:04;18.83;;;15.45;;
12480;SDS011;6305;48.398;11.762;2024-03-02T14:04:31;20.10;;;14.68;;
12480;SDS011;6305;48.398;11.762;2024-03-02T14:06:59;20.05;;;14.98;;
12480;SDS011;6305;48.398;11.762;2024-03-02T14:09:26;20.67;;;15.55;;
12480;SDS011;6305;48.398;11.762;2024-03-02T14:11:53;18.85;;;15.23;;
12480;SDS011;6305;48.398;11.762;2024-03-02T14:14:22;18.20;;;13.90;;
12480;SDS011;6305;48.398;11.762;2024-03-02T14:16:49;18.38;;;14.75;;
12480;SDS011;6305;48.398;11.762;2024-03-02T14:19:17;19.90;;;15.40;;
12480;SDS011;6305;48.398;11.762;2024-03-02T14:21:44;20.17;;;14.32;;
12480;SDS011;6305;48.398;11.762;2024-03-02T14:24:11;20.70;;;14.93;;